默认 日期 大小 文件数 浏览量 最新下载 xml
moons磁力链接相关资源由用户搜索指令自动获取,结果来源于网络,本站不存储任何资料,亦不承担任何责任,请于24小时内删除,搜索到811个磁力,用时3ms。
    {"M00NS 0f M4DN3SS ZonaLeRoS.part1.rar": 2147483648, "M00NS 0f M4DN3SS ZonaLeRoS.part2.rar": 2147483648, "M00NS 0f M4DN3SS ZonaLeRoS.part3.rar": 1236376224}
创建时间: 2020-12-24 01:55:40 大小:5.15 GB 文件数量:3 热度:4 最近下载:2025-01-18 06:09:06
    {"Mo4onsoMadnes1s-1.02-elamigos.part1.rar": 1072693248, "Mo4onsoMadnes1s-1.02-elamigos.part2.rar": 1072693248, "Mo4onsoMadnes1s-1.02-elamigos.part3.rar": 1072693248, "Mo4onsoMadnes1s-1.02-elamigos.part4.rar": 1072693248, "Mo4onsoMadnes1s-1.02-elamigos. ...
创建时间: 2020-12-24 19:55:23 大小:4.99 GB 文件数量:5 热度:4 最近下载:2025-01-31 03:46:01
    {"[HR] Over the Moon (2020).mkv": 2318416941, "[Hakata Ramen] Over the Moon (2020).txt": 1409, "[Hakata Ramen] Over the Moon (2020) [Netflix 4K to 1080p x265 E-OPUS 5.1 Multi] ~Doc_Ramen.nfo": 1423}
创建时间: 2020-12-27 14:59:39 大小:2.16 GB 文件数量:3 热度:9 最近下载:2025-10-15 21:02:32
    ... .lit": 610253, "Beneath the Thirteen Moons - Kathryne Kennedy.lrf": 1069333, "Beneath ... the Thirteen Moons - Kathryne Kennedy.pdf": 1049685, "Beneath ... the Thirteen Moons - Kathryne Kennedy.rar": 482421, "Beneath ...
创建时间: 2021-01-26 08:03:09 大小:5.77 MB 文件数量:10 热度:2 最近下载:2025-01-06 14:47:04
    {"RARBG.txt": 31, "Five.Moons.Square.2003.1080p.AMZN.WEBRip.DDP2.0.x264-NWD.mkv": 4472415032}
创建时间: 2021-01-28 18:55:12 大小:4.17 GB 文件数量:2 热度:4 最近下载:2025-03-02 15:03:04
    {"Subs": {"English.srt": 92544, "SDH.eng.srt": 103246}, "www.YTS.MX.jpg": 53226, "Five.Moons.Plaza.2003.1080p.WEBRip.x264.AAC-[YTS.MX].mp4": 1961179070, "Five.Moons.Plaza.2003.1080p.WEBRip.x264.AAC-[YTS.MX].srt": 92544}
创建时间: 2021-01-29 02:14:36 大小:1.83 GB 文件数量:5 热度:5 最近下载:2025-01-21 14:35:05
    {"Subs": {"2_English.srt": 92673, "3_English.srt": 103387}, "RARBG.txt": 30, "RARBG_DO_NOT_MIRROR.exe": 99, "Five.Moons.Square.2003.WEBRip.x264-ION10.mp4": 1120703194}
创建时间: 2021-01-29 02:17:26 大小:1.04 GB 文件数量:5 热度:2 最近下载:2025-03-04 04:54:03
    {"Subs": {"2_English.srt": 92673, "3_English.srt": 103387}, "RARBG.txt": 30, "RARBG_DO_NOT_MIRROR.exe": 99, "Five.Moons.Square.2003.1080p.WEBRip.x264-RARBG.mp4": 2245261596}
创建时间: 2021-01-29 06:35:58 大小:2.09 GB 文件数量:5 热度:4 最近下载:2025-04-23 19:44:02
    {"Subs": {"English.srt": 92544, "SDH.eng.srt": 103246}, "www.YTS.MX.jpg": 53226, "Five.Moons.Plaza.2003.720p.WEBRip.x264.AAC-[YTS.MX].mp4": 1056534503, "Five.Moons.Plaza.2003.720p.WEBRip.x264.AAC-[YTS.MX].srt": 92544}
创建时间: 2021-01-29 18:53:50 大小:1007.92 MB 文件数量:5 热度:2 最近下载:2025-02-24 11:36:09
    {"Subs": {"2_English.srt": 92673, "3_English.srt": 103387}, "RARBG.txt": 30, "RARBG_DO_NOT_MIRROR.exe": 99, "Five.Moons.Square.2003.WEBRip.XviD.MP3-XVID.avi": 1453579404}
创建时间: 2021-01-29 19:37:38 大小:1.35 GB 文件数量:5 热度:3 最近下载:2025-01-13 06:23:04
    {"Subs": {"2_English.srt": 92673, "3_English.srt": 103387}, "RARBG.txt": 30, "RARBG_DO_NOT_MIRROR.exe": 99, "Five.Moons.Square.2003.1080p.WEBRip.x265-RARBG.mp4": 1835108656}
创建时间: 2021-01-30 01:53:43 大小:1.71 GB 文件数量:5 热度:5 最近下载:2025-02-08 09:31:05
    {"cover.jpg": 188850, "01 - Today.flac": 26178717, "07 - Sleep.flac": 20896651, "04 - Far Away.flac": 27184852, "10 - Midnight.flac": 23798237, "14 - Here I Am.flac": 44963826, "02 - Riding Man.flac": 25158130, "11 - Rear Window.flac": 33365778, "09 - The ...
创建时间: 2021-02-16 14:50:18 大小:438.69 MB 文件数量:24 热度:2 最近下载:2025-02-08 09:27:09
    {"Moons.Of.Madness.Repack-MASQUERADE.7z": 5318813838}
创建时间: 2021-02-22 15:51:15 大小:4.95 GB 文件数量:1 热度:2 最近下载:2025-01-20 10:34:05
    {"Resurrection.jpg": 41239, "Bill Parker - Five Moons 01 - Resurrection (2018) [Chaptered].mp3": 216176560}
创建时间: 2021-03-20 09:15:01 大小:206.2 MB 文件数量:2 热度:3 最近下载:2025-02-05 10:41:02
    {"Convolute.jpg": 33564, "Bill Parker - Five Moons 02 - Convolute (2018) [Chaptered].mp3": 231468364}
创建时间: 2021-03-22 10:02:26 大小:220.78 MB 文件数量:2 热度:3 最近下载:2025-04-27 12:22:01
    {"cover.jpg": 46519, "15. The End.mp3": 5365456, "01. 2 Prologue.mp3": 8453132, "02. Chapter One - King TARS.mp3": 9881531, "03. Chapter Two - Botnapping.mp3": 1477419, "04. Chapter Three - Inception.mp3": 8298515, "13. Chapter Twelve - The Rise.mp3": ...
创建时间: 2021-03-23 16:32:48 大小:112.31 MB 文件数量:16 热度:2 最近下载:2025-01-09 09:35:04
    {"folder.jpg": 465566, "01 - Prologue.flac": 20957811, "13 - Epilogue.flac": 14509287, "10 - Chapter Nine Captive.flac": 6676068, "02 - Chapter One Space-Time.flac": 22437312, "11 - Chapter Ten The Escape.flac": 10278405, "09 - Chapter Eight The March.flac ...
创建时间: 2021-03-25 06:29:14 大小:245.24 MB 文件数量:14 热度:3 最近下载:2025-01-22 08:21:04
    {"folder.jpg": 343331, "15 - The End.flac": 11537146, "01 - 2 Prologue.flac": 22667568, "02 - Chapter One King TARS.flac": 31987382, "03 - Chapter Two Botnapping.flac": 2810081, "04 - Chapter Three Inception.flac": 24286838, "13 - Chapter Twelve The Rise. ...
创建时间: 2021-03-26 14:36:33 大小:327.03 MB 文件数量:16 热度:4 最近下载:2025-01-03 21:14:07
创建时间: 2021-04-11 09:07:51 大小:33.59 GB 文件数量:2 热度:16 最近下载:2025-09-20 14:12:01
    {"RARBG.txt": 31, "Cuatro.Lunas.AKA.Four.Moons.2014.1080p.BluRay.x264-HANDJOB.mkv": 8568129142}
创建时间: 2021-04-12 04:24:25 大小:7.98 GB 文件数量:2 热度:3 最近下载:2025-01-26 03:50:06